METAR (acronimo di METeorological Air Report) è un messaggio meteo emesso nella maggior parte dei casi in ambito aeroportuale

YSSY - Sydney, Australia
Ultimo Aggiornamento: Giovedì 03 Dicembre 2020 17:30 CET
Prevalentemente Nuvoloso
Prevalentemente Nuvoloso
 Wind from Ovest-Nord-Ovest
Vento: Ovest-Nord-Ovest 9 km/h
Temperatura: 20°C
Punto di Rugiada: 18°C
Umidità: 88%
Barometro: 1014 hPa
Nuvole: Prevalentemente Nuvoloso
Visibilità: 10 km
Nuvole nel Dettaglio: Qualche Nuvola 1067 m
Prevalentemente Nuvoloso 8230 m
2020/12/03 16:30 YSSY 031630Z 30005KT 9999 FEW035 BKN270 20/18 Q1014
YMML - Melbourne, Australia
Ultimo Aggiornamento: Giovedì 03 Dicembre 2020 17:30 CET
Sereno
Sereno
 Wind from Ovest-Nord-Ovest
Vento: Ovest-Nord-Ovest 15 km/h
Temperatura: 10°C
Wind Chill: 8°C
Punto di Rugiada: 8°C
Umidità: 88%
Barometro: 1015 hPa
Condizioni: Sereno
Visibilità: superiore a 10 km
2020/12/03 16:30 YMML 031630Z 29008KT CAVOK 10/08 Q1015
YBBN - Brisbane, Australia
Ultimo Aggiornamento: Giovedì 03 Dicembre 2020 17:30 CET
Prevalentemente Nuvoloso
Prevalentemente Nuvoloso
 Wind from Est
Vento: Est 6 km/h
Temperatura: 24°C
Punto di Rugiada: 20°C
Umidità: 78%
Barometro: 1018 hPa
Nuvole: Prevalentemente Nuvoloso
Visibilità: 10 km
Nuvole nel Dettaglio: Qualche Nuvola 610 m
Parzialmente Nuvoloso 6096 m
Prevalentemente Nuvoloso 9144 m
2020/12/03 16:30 YBBN 031630Z 10003KT 9999 FEW020 SCT200 BKN300 24/20 Q1018
 
YPPH - Perth, Australia
Ultimo Aggiornamento: Giovedì 03 Dicembre 2020 17:30 CET
Qualche Nuvola
Qualche Nuvola
 Wind from Sud-Ovest
Vento: Sud-Ovest 24 km/h
Temperatura: 17°C
Punto di Rugiada: 13°C
Umidità: 77%
Barometro: 1012 hPa
Nuvole: Qualche Nuvola
Visibilità: 10 km
Nuvole nel Dettaglio: Qualche Nuvola 549 m
2020/12/03 16:30 YPPH 031630Z 22013KT 9999 FEW018 17/13 Q1012
YBAS - Alice Springs, Australia
Ultimo Aggiornamento: Giovedì 03 Dicembre 2020 17:30 CET
Sereno
Sereno
 Wind from Est-Sud-Est
Vento: Est-Sud-Est 11 km/h
Temperatura: 26°C
Punto di Rugiada: 1°C
Umidità: 20%
Barometro: 1014 hPa
Nuvole: Sereno
Visibilità: 10 km
2020/12/03 16:30 YBAS 031630Z AUTO 12006KT 9999 // NCD 26/01 Q1014 RF00.0////./
NZAA - Auckland, New Zealand
Ultimo Aggiornamento: Giovedì 03 Dicembre 2020 17:30 CET
Prevalentemente Nuvoloso
Prevalentemente Nuvoloso
 Wind from Sud-Sud-Ovest
Vento: Sud-Sud-Ovest 26 km/h
Temperatura: 15°C
Punto di Rugiada: 9°C
Umidità: 68%
Barometro: 1015 hPa
Nuvole: Prevalentemente Nuvoloso
Visibilità: 10 km
Nuvole nel Dettaglio: Prevalentemente Nuvoloso 945 m
2020/12/03 16:30 NZAA 031630Z AUTO 21014KT 9999 BKN031/// 15/09 Q1015 NOSIG
 
NTAA - Tahiti, French Polynesia
Ultimo Aggiornamento: Giovedì 03 Dicembre 2020 17:30 CET
Pioggia Leggera, Acquazzoni, Prevalentemente Nuvoloso
Pioggia Leggera, Acquazzoni, Prevalentemente Nuvoloso
 Wind from Est
Vento: Est 15 km/h
Temperatura: 25°C
Punto di Rugiada: 21°C
Umidità: 79%
Barometro: 1012 hPa
Condizioni: Pioggia Leggera, Acquazzoni
Nuvole: Prevalentemente Nuvoloso
Visibilità: 10 km
Nuvole nel Dettaglio: Qualche Nuvola 640 m
Prevalentemente Nuvoloso 1707 m
2020/12/03 16:30 NTAA 031630Z 10008KT 080V160 9999 -SHRA FEW021 BKN056 25/21 Q1012 NOSIG
NFFN - Nadi, Fiji
Ultimo Aggiornamento: Giovedì 03 Dicembre 2020 17:00 CET
Parzialmente Nuvoloso
Parzialmente Nuvoloso
 Wind from Sud-Est
Vento: Sud-Est 7 km/h
Temperatura: 23°C
Punto di Rugiada: 22°C
Umidità: 94%
Barometro: 1010 hPa
Nuvole: Parzialmente Nuvoloso
Visibilità: 10 km
Nuvole nel Dettaglio: Qualche Nuvola 853 m
Parzialmente Nuvoloso 1463 m
2020/12/03 16:00 NFFN 031600Z 14004KT 9999 FEW028 SCT048 23/22 Q1010 NOSIG
PKMJ - Majuro, Marshall Islands
Ultimo Aggiornamento: Lunedì 30 Novembre 2020 10:52 CET
Dati non Recenti
Nuvoloso
Nuvoloso
 Wind from Est-Sud-Est
Vento: Est-Sud-Est 33 km/h
Temperatura: 28°C
Heat Index: 32°C
Punto di Rugiada: 25°C
Umidità: 84%
Barometro: 1008.8 hPa
Nuvole: Nuvoloso
Visibilità: 24 km
Nuvole nel Dettaglio: Parzialmente Nuvoloso 427 m
Prevalentemente Nuvoloso 1524 m
Prevalentemente Nuvoloso 3658 m
Nuvoloso 9144 m
2020/11/30 09:52 PKMJ 300952Z 11018KT 15SM SCT014 BKN050 BKN120 OVC300 28/25 A2979 RMK LAST
 
PGUM - Hagatna, Guam, United States
Ultimo Aggiornamento: Giovedì 03 Dicembre 2020 16:54 CET
Prevalentemente Nuvoloso
Prevalentemente Nuvoloso
 Wind from Est
Vento: Est 13 km/h
Temperatura: 27°C
Heat Index: 31°C
Punto di Rugiada: 24°C
Umidità: 84%
Barometro: 1010.8 hPa
Nuvole: Prevalentemente Nuvoloso
Visibilità: 16 km
Nuvole nel Dettaglio: Qualche Nuvola 518 m
Qualche Nuvola 701 m
Prevalentemente Nuvoloso 1128 m
2020/12/03 15:54 PGUM 031554Z 09007KT 10SM FEW017 FEW023 BKN037 27/24 A2985 RMK AO2 SLP100 T02670239
AYPY - Port Moresby, Papua New Guinea
Ultimo Aggiornamento: Giovedì 03 Dicembre 2020 17:00 CET
Parzialmente Nuvoloso
Parzialmente Nuvoloso
 Wind from Nord-Nord-Ovest
Vento: Nord-Nord-Ovest 19 km/h
Temperatura: 24°C
Punto di Rugiada: 24°C
Umidità: 100%
Barometro: 1008 hPa
Nuvole: Parzialmente Nuvoloso
Visibilità: 10 km
Nuvole nel Dettaglio: Qualche Nuvola 152 m
Parzialmente Nuvoloso 1219 m
2020/12/03 16:00 AYPY 031600Z 34010KT 9999 FEW005 SCT040 24/24 Q1008
AGGH - Honiara, Guadalcanal, Solomon Islands
Ultimo Aggiornamento: Giovedì 03 Dicembre 2020 17:00 CET
Prevalentemente Nuvoloso
Prevalentemente Nuvoloso
 Wind from calm
Vento: Calma
Temperatura: 24°C
Punto di Rugiada: 24°C
Umidità: 100%
Barometro: 1009 hPa
Nuvole: Prevalentemente Nuvoloso
Visibilità: 10 km
Nuvole nel Dettaglio: Qualche Nuvola 427 m
Parzialmente Nuvoloso 732 m
Prevalentemente Nuvoloso 3048 m
2020/12/03 16:00 AGGH 031600Z 00000KT 9999 FEW014 SCT024 BKN100 24/24 Q1009